Time;durP1;ratioP1;P1;durP2;ratioP2;P2;SDS_P1;SDS_P2;PMS_P1;PMS_P2;Temp;Humidity;BMP_temperature;BMP_pressure;BME280_temperature;BME280_humidity;BME280_pressure;Samples;Min_cycle;Max_cycle;Signal;HPM_P1;HPM_P2
2023/12/19 00:01:01;;;;;;;27.75;14.75;;;;;;;5.79;94.52;102523.38;5062877;28;20056;-70
2023/12/19 00:03:26;;;;;;;32.63;15.00;;;;;;;5.81;94.43;102516.38;5064850;28;20519;-69
2023/12/19 00:05:52;;;;;;;32.63;16.73;;;;;;;5.75;95.04;102534.72;5057655;28;20039;-70
2023/12/19 00:08:17;;;;;;;31.67;15.15;;;;;;;5.79;94.92;102540.00;5063415;28;20059;-69
2023/12/19 00:10:43;;;;;;;36.97;15.80;;;;;;;5.79;94.87;102531.25;5057212;28;20120;-70
2023/12/19 00:13:08;;;;;;;32.58;16.00;;;;;;;5.81;94.84;102521.63;5057228;28;20101;-69
2023/12/19 00:15:34;;;;;;;35.72;17.40;;;;;;;5.78;95.24;102516.34;5055216;28;20057;-69
2023/12/19 00:17:59;;;;;;;28.92;14.15;;;;;;;5.87;94.93;102514.69;5057320;28;20100;-69
2023/12/19 00:20:25;;;;;;;36.42;18.70;;;;;;;5.80;95.70;102510.25;5066856;28;20087;-69
2023/12/19 00:22:50;;;;;;;36.47;19.13;;;;;;;5.85;94.71;102507.66;5064298;28;20387;-70
2023/12/19 00:25:16;;;;;;;29.90;15.50;;;;;;;5.99;95.31;102497.28;5066076;28;20100;-70
2023/12/19 00:27:42;;;;;;;36.50;16.13;;;;;;;5.88;94.91;102487.56;5059177;28;20463;-70
2023/12/19 00:30:07;;;;;;;27.85;14.00;;;;;;;5.84;95.39;102488.41;5056185;28;20115;-70
2023/12/19 00:32:33;;;;;;;34.90;17.33;;;;;;;5.86;95.31;102493.66;5067614;28;20047;-70
2023/12/19 00:34:58;;;;;;;31.38;14.40;;;;;;;5.88;95.35;102481.44;5061805;28;20028;-70
2023/12/19 00:37:23;;;;;;;33.05;15.35;;;;;;;5.85;95.88;102470.91;5058413;28;20035;-70
2023/12/19 00:39:49;;;;;;;33.33;17.27;;;;;;;5.86;95.57;102451.66;5056583;28;20121;-70
2023/12/19 00:42:14;;;;;;;36.90;17.08;;;;;;;5.91;95.52;102454.31;5059515;28;20028;-70
2023/12/19 00:44:39;;;;;;;29.65;15.90;;;;;;;5.92;95.46;102451.72;5064812;28;20033;-70
2023/12/19 00:47:05;;;;;;;32.30;15.95;;;;;;;5.95;95.78;102456.13;5059112;28;20108;-70
2023/12/19 00:49:30;;;;;;;29.23;15.45;;;;;;;5.93;95.35;102445.63;5057859;28;20021;-70
2023/12/19 00:51:56;;;;;;;35.08;17.52;;;;;;;5.91;95.46;102449.94;5064877;28;20082;-70
2023/12/19 00:54:22;;;;;;;35.47;17.13;;;;;;;5.94;95.87;102443.88;5073673;28;20027;-70
2023/12/19 00:56:47;;;;;;;35.90;17.27;;;;;;;5.88;96.21;102437.69;5061187;28;20029;-70
2023/12/19 00:59:13;;;;;;;33.90;16.77;;;;;;;5.95;96.30;102435.13;5063917;28;20084;-69
2023/12/19 01:01:38;;;;;;;25.55;12.90;;;;;;;6.01;95.74;102429.91;5062435;28;20039;-69
2023/12/19 01:04:04;;;;;;;32.45;15.10;;;;;;;6.00;95.85;102429.03;5066683;28;20055;-70
2023/12/19 01:06:29;;;;;;;29.60;16.65;;;;;;;5.95;96.34;102437.75;5067744;28;20552;-69
2023/12/19 01:08:55;;;;;;;36.83;16.40;;;;;;;5.92;96.70;102417.59;5066847;28;20157;-70
2023/12/19 01:11:20;;;;;;;36.28;16.40;;;;;;;5.93;96.43;102411.50;5065740;28;20090;-70
2023/12/19 01:13:46;;;;;;;31.42;15.73;;;;;;;5.96;96.56;102403.63;5070266;28;20381;-70
2023/12/19 01:16:13;;;;;;;36.70;17.58;;;;;;;5.96;96.81;102398.38;5056505;28;20465;-70
2023/12/19 01:18:38;;;;;;;31.63;15.68;;;;;;;6.02;96.63;102394.91;5066750;28;20033;-70
2023/12/19 01:21:04;;;;;;;25.20;13.65;;;;;;;6.04;96.51;102401.91;5063096;28;20382;-70
2023/12/19 01:23:30;;;;;;;30.20;16.52;;;;;;;6.02;96.54;102398.41;5065055;28;20035;-70
2023/12/19 01:25:55;;;;;;;37.25;16.40;;;;;;;5.98;97.42;102396.66;5059170;28;20021;-70
2023/12/19 01:28:21;;;;;;;36.13;17.60;;;;;;;5.99;97.09;102413.28;5061820;28;20024;-70
2023/12/19 01:30:46;;;;;;;36.40;16.45;;;;;;;6.01;97.31;102414.16;5058062;28;20067;-70
2023/12/19 01:33:11;;;;;;;38.53;17.58;;;;;;;6.06;97.13;102415.03;5071060;28;20257;-70
2023/12/19 01:35:37;;;;;;;35.80;17.48;;;;;;;6.06;97.27;102402.81;5060450;28;20052;-70
2023/12/19 01:38:03;;;;;;;34.20;15.48;;;;;;;6.13;96.74;102398.44;5062247;28;20024;-70
2023/12/19 01:40:31;;;;;;;34.05;16.25;;;;;;;6.09;96.91;102402.81;5057427;28;20017;-70
2023/12/19 01:42:57;;;;;;;38.88;16.90;;;;;;;6.08;97.52;102397.56;5061458;28;20431;-70
2023/12/19 01:45:25;;;;;;;38.65;19.98;;;;;;;6.04;97.66;102383.53;5063153;28;20047;-70
2023/12/19 01:47:51;;;;;;;35.05;18.38;;;;;;;6.06;97.52;102405.44;5062830;28;20017;-70
2023/12/19 01:50:17;;;;;;;36.67;20.38;;;;;;;6.03;97.79;102394.03;5069077;28;20046;-70
2023/12/19 01:52:47;;;;;;;38.65;20.23;;;;;;;6.06;98.02;102396.66;5063088;28;20066;-70
2023/12/19 01:55:14;;;;;;;33.10;15.85;;;;;;;6.15;97.22;102391.44;5057957;28;20036;-70
2023/12/19 01:57:40;;;;;;;32.60;19.58;;;;;;;6.10;97.77;102393.19;5062928;28;20036;-70
2023/12/19 02:00:06;;;;;;;36.80;17.40;;;;;;;6.06;98.43;102381.81;5058777;28;20035;-70
2023/12/19 02:02:32;;;;;;;37.55;16.08;;;;;;;6.15;97.63;102386.19;5060579;28;20490;-70
2023/12/19 02:04:58;;;;;;;38.45;19.20;;;;;;;6.13;97.74;102386.19;5069220;28;20028;-70
2023/12/19 02:07:24;;;;;;;41.15;19.52;;;;;;;6.17;97.36;102386.22;5057693;28;20469;-70
2023/12/19 02:09:52;;;;;;;34.50;15.25;;;;;;;6.16;97.80;102384.47;5066956;28;20111;-70
2023/12/19 02:12:17;;;;;;;34.97;16.42;;;;;;;6.23;97.58;102383.59;5063737;28;20081;-70
2023/12/19 02:14:43;;;;;;;37.95;17.80;;;;;;;6.20;97.41;102392.34;5063105;28;20028;-70
2023/12/19 02:17:11;;;;;;;32.75;16.45;;;;;;;6.22;97.77;102372.22;5064060;28;20590;-70
2023/12/19 02:19:47;;;;;;;37.20;16.70;;;;;;;6.26;97.44;102371.34;5064181;28;20024;-70
2023/12/19 02:22:13;;;;;;;41.95;17.40;;;;;;;6.19;97.85;102360.81;5054258;28;20036;-70
2023/12/19 02:24:39;;;;;;;37.38;16.35;;;;;;;6.21;97.90;102364.34;5061687;28;20025;-70
2023/12/19 02:27:06;;;;;;;31.88;15.25;;;;;;;6.23;nan;102352.06;5058990;28;20031;-70
2023/12/19 02:29:31;;;;;;;42.83;18.73;;;;;;;6.10;99.30;102349.41;5057971;28;20033;-70
2023/12/19 02:32:00;;;;;;;36.95;18.85;;;;;;;6.13;99.58;102345.94;5066517;28;20464;-69
2023/12/19 02:34:25;;;;;;;38.53;18.00;;;;;;;6.13;99.20;102356.44;5065561;28;20392;-70
2023/12/19 02:36:51;;;;;;;34.25;16.02;;;;;;;6.17;99.64;102346.81;5061746;28;20024;-69
2023/12/19 02:39:16;;;;;;;36.22;17.17;;;;;;;6.13;99.67;102353.81;5057121;28;20043;-70
2023/12/19 02:41:42;;;;;;;36.90;17.30;;;;;;;6.13;99.98;102357.31;5064939;28;20020;-69
2023/12/19 02:44:07;;;;;;;34.78;16.42;;;;;;;6.10;100.00;102357.28;5060411;28;20028;-69
2023/12/19 02:46:32;;;;;;;37.28;16.77;;;;;;;6.09;100.00;102347.66;5062804;28;20028;-69
2023/12/19 02:48:58;;;;;;;39.10;17.25;;;;;;;6.05;100.00;102345.91;5065099;28;20138;-70
2023/12/19 02:51:27;;;;;;;37.70;16.77;;;;;;;6.07;100.00;102343.31;5064308;28;20020;-70
2023/12/19 02:53:53;;;;;;;34.70;15.50;;;;;;;6.04;100.00;102346.78;5067637;28;20028;-70
2023/12/19 02:56:19;;;;;;;39.45;17.42;;;;;;;6.02;100.00;102327.53;5062357;28;20085;-71
2023/12/19 02:58:44;;;;;;;26.88;12.93;;;;;;;6.07;100.00;102320.53;5054130;28;20048;-70
2023/12/19 03:01:10;;;;;;;35.63;15.88;;;;;;;6.01;100.00;102312.63;5062206;28;20028;-70
2023/12/19 03:03:35;;;;;;;31.77;15.13;;;;;;;6.01;100.00;102303.88;5064551;28;20057;-70
2023/12/19 03:06:01;;;;;;;33.05;15.50;;;;;;;6.01;100.00;102304.75;5059527;28;20028;-70
2023/12/19 03:08:27;;;;;;;34.83;17.50;;;;;;;5.95;100.00;102296.00;5063487;28;20033;-69
2023/12/19 03:10:52;;;;;;;28.02;13.70;;;;;;;6.00;100.00;102303.00;5061862;28;20020;-69
2023/12/19 03:13:18;;;;;;;27.85;14.20;;;;;;;6.02;100.00;102298.66;5066858;28;20131;-70
2023/12/19 03:15:43;;;;;;;25.48;13.02;;;;;;;6.00;100.00;102286.38;5062071;28;20418;-70
2023/12/19 03:18:09;;;;;;;30.83;14.00;;;;;;;6.03;100.00;102286.41;5063804;28;20024;-70
2023/12/19 03:20:34;;;;;;;29.92;13.50;;;;;;;6.00;100.00;102284.63;5066786;28;20020;-70
2023/12/19 03:22:59;;;;;;;36.20;17.98;;;;;;;5.98;100.00;102273.28;5066205;28;20059;-70
2023/12/19 03:25:25;;;;;;;31.00;14.43;;;;;;;6.04;100.00;102277.66;5065264;28;20052;-70
2023/12/19 03:27:50;;;;;;;34.22;14.15;;;;;;;6.01;100.00;102268.00;5064151;28;20396;-70
2023/12/19 03:30:16;;;;;;;35.13;15.65;;;;;;;5.93;100.00;102264.50;5062494;28;20020;-70
2023/12/19 03:32:41;;;;;;;32.08;14.52;;;;;;;5.97;100.00;102252.25;5062521;28;20021;-70
2023/12/19 03:35:07;;;;;;;41.17;21.70;;;;;;;5.88;100.00;102246.09;5066622;28;20020;-69
2023/12/19 03:37:33;;;;;;;30.02;15.98;;;;;;;5.99;100.00;102234.75;5067064;28;20041;-70
2023/12/19 03:39:58;;;;;;;32.58;15.02;;;;;;;6.07;100.00;102226.03;5059415;28;20388;-70
2023/12/19 03:42:23;;;;;;;33.05;14.98;;;;;;;6.08;100.00;102219.03;5061862;28;20028;-70
2023/12/19 03:44:49;;;;;;;32.00;14.32;;;;;;;6.06;100.00;102224.28;5059046;28;20365;-70
2023/12/19 03:47:15;;;;;;;31.85;14.82;;;;;;;6.03;100.00;102229.53;5064183;28;20506;-70
2023/12/19 03:49:40;;;;;;;27.30;14.55;;;;;;;6.06;100.00;102224.28;5058469;28;20021;-70
2023/12/19 03:52:07;;;;;;;31.23;15.73;;;;;;;6.03;100.00;102221.66;5063194;28;20052;-70
2023/12/19 03:54:32;;;;;;;33.30;15.48;;;;;;;6.04;100.00;102218.13;5069658;28;20052;-70
2023/12/19 03:56:57;;;;;;;31.52;13.95;;;;;;;6.08;100.00;102232.16;5061752;28;20514;-70
2023/12/19 03:59:23;;;;;;;30.08;13.95;;;;;;;6.06;100.00;102212.88;5062469;28;20036;-70
2023/12/19 04:01:48;;;;;;;29.95;13.38;;;;;;;6.09;100.00;102212.88;5066367;28;20035;-70
2023/12/19 04:04:14;;;;;;;31.60;14.10;;;;;;;6.15;100.00;102197.13;5062203;28;20036;-70
2023/12/19 04:06:43;;;;;;;28.25;13.05;;;;;;;6.12;100.00;102211.16;5062422;28;20028;-70
2023/12/19 04:09:12;;;;;;;28.77;13.93;;;;;;;6.18;100.00;102198.91;5061831;28;20028;-70
2023/12/19 04:11:46;;;;;;;47.65;21.75;;;;;;;6.13;100.00;102210.25;5062249;28;20048;-70
2023/12/19 04:14:12;;;;;;;38.10;14.73;;;;;;;6.21;100.00;102198.91;5068490;28;20035;-70
2023/12/19 04:16:37;;;;;;;37.22;16.02;;;;;;;6.50;100.00;102199.75;5063926;28;20043;-70
2023/12/19 04:19:03;;;;;;;39.95;18.88;;;;;;;6.60;100.00;102195.34;5062401;28;20102;-70
2023/12/19 04:21:28;;;;;;;39.10;17.23;;;;;;;6.60;100.00;102200.59;5065903;28;20078;-70
2023/12/19 04:23:53;;;;;;;38.35;17.50;;;;;;;6.70;100.00;102185.69;5066761;28;20559;-70
2023/12/19 04:26:19;;;;;;;40.53;18.48;;;;;;;6.72;99.52;102181.31;5064924;28;20023;-71
2023/12/19 04:28:45;;;;;;;40.28;16.45;;;;;;;6.71;99.37;102177.78;5067178;28;20146;-70
2023/12/19 04:31:11;;;;;;;43.05;17.17;;;;;;;6.55;100.00;102161.19;5068285;28;20034;-70
2023/12/19 04:33:36;;;;;;;39.47;18.30;;;;;;;6.53;100.00;102156.84;5070706;28;20360;-70
2023/12/19 04:36:02;;;;;;;45.47;24.85;;;;;;;6.47;100.00;102148.94;5064310;28;20131;-69
2023/12/19 04:38:27;;;;;;;36.85;17.70;;;;;;;6.58;100.00;102142.81;5066692;28;20142;-70
2023/12/19 04:40:53;;;;;;;38.33;19.27;;;;;;;6.56;100.00;102162.94;5064782;28;20075;-70
2023/12/19 04:43:18;;;;;;;42.45;18.10;;;;;;;6.54;100.00;102142.81;5068971;28;20437;-70
2023/12/19 04:45:44;;;;;;;39.47;19.48;;;;;;;6.60;100.00;102132.28;5069782;28;20482;-70
2023/12/19 04:48:09;;;;;;;37.08;18.70;;;;;;;6.61;100.00;102137.53;5059929;28;20031;-70
2023/12/19 04:50:34;;;;;;;33.03;17.20;;;;;;;6.61;100.00;102134.03;5066246;28;20093;-70
2023/12/19 04:53:00;;;;;;;41.53;19.98;;;;;;;6.68;100.00;102124.38;5068128;28;20048;-70
2023/12/19 04:55:25;;;;;;;40.03;18.85;;;;;;;6.74;99.87;102122.59;5059109;28;20028;-70
2023/12/19 04:57:50;;;;;;;39.47;20.30;;;;;;;6.68;100.00;102125.25;5062518;28;20052;-70
2023/12/19 05:00:16;;;;;;;39.53;18.00;;;;;;;6.78;99.78;102115.59;5071183;28;20550;-70
2023/12/19 05:02:41;;;;;;;45.30;19.45;;;;;;;6.80;99.71;102106.78;5067310;28;20025;-70
2023/12/19 05:05:07;;;;;;;37.42;19.90;;;;;;;6.79;100.00;102096.28;5067699;28;20341;-70
2023/12/19 05:07:33;;;;;;;39.85;20.75;;;;;;;6.75;99.83;102113.81;5067405;28;20365;-70
2023/12/19 05:09:58;;;;;;;45.65;20.48;;;;;;;6.81;100.00;102115.56;5067655;28;20074;-70
2023/12/19 05:12:24;;;;;;;41.63;18.58;;;;;;;6.89;99.90;102119.91;5065776;28;20131;-70
2023/12/19 05:14:49;;;;;;;39.35;18.02;;;;;;;6.89;99.49;102113.78;5064465;28;20066;-69
2023/12/19 05:17:14;;;;;;;39.83;21.00;;;;;;;7.09;98.81;102105.81;5058645;28;20456;-70
2023/12/19 05:19:40;;;;;;;40.33;19.35;;;;;;;6.90;99.20;102110.25;5068819;28;20395;-70
2023/12/19 05:22:05;;;;;;;45.90;19.35;;;;;;;6.96;99.22;102114.63;5066340;28;20028;-70
2023/12/19 05:24:32;;;;;;;39.13;18.83;;;;;;;6.97;99.27;102116.38;5067155;28;20054;-69
2023/12/19 05:26:59;;;;;;;39.70;17.65;;;;;;;6.97;99.65;102113.75;5063354;28;20491;-69
2023/12/19 05:29:25;;;;;;;36.38;17.52;;;;;;;6.99;99.65;102123.34;5067585;28;20392;-70
2023/12/19 05:31:50;;;;;;;40.95;19.30;;;;;;;7.03;99.05;102116.34;5066514;28;20035;-70
2023/12/19 05:34:15;;;;;;;39.88;17.17;;;;;;;7.06;98.74;102111.06;5069292;28;20020;-69
2023/12/19 05:36:46;;;;;;;41.13;20.60;;;;;;;7.02;99.08;102106.72;5065387;28;20025;-70
2023/12/19 05:39:12;;;;;;;30.02;16.85;;;;;;;7.10;98.84;102104.91;5069084;28;20024;-70
2023/12/19 05:41:37;;;;;;;40.95;18.33;;;;;;;7.09;99.13;102095.28;5069046;28;20617;-70
2023/12/19 05:44:03;;;;;;;42.17;18.92;;;;;;;7.09;99.26;102096.16;5067150;28;20191;-70
2023/12/19 05:46:28;;;;;;;41.40;21.40;;;;;;;7.07;99.20;102097.91;5071248;28;20056;-70
2023/12/19 05:48:53;;;;;;;35.17;16.95;;;;;;;7.15;99.17;102096.13;5055157;28;20426;-70
2023/12/19 05:51:19;;;;;;;34.00;17.73;;;;;;;7.20;98.46;102089.97;5068546;28;20077;-70
2023/12/19 05:53:44;;;;;;;27.77;15.80;;;;;;;7.19;98.70;102080.31;5059960;28;20028;-70
2023/12/19 05:56:13;;;;;;;33.47;18.45;;;;;;;7.02;99.32;102078.66;5065859;28;20170;-70
2023/12/19 05:58:39;;;;;;;38.58;18.77;;;;;;;7.13;99.14;102081.22;5064836;28;20057;-69
2023/12/19 06:01:04;;;;;;;29.70;15.85;;;;;;;7.17;98.67;102061.91;5064240;28;20044;-70
2023/12/19 06:03:29;;;;;;;35.08;17.20;;;;;;;7.21;98.32;102062.75;5068569;28;20025;-70
2023/12/19 06:05:55;;;;;;;29.95;15.82;;;;;;;7.21;98.58;102068.03;5062423;28;20028;-70
2023/12/19 06:08:20;;;;;;;33.20;17.40;;;;;;;7.20;98.54;102061.03;5064002;28;20037;-70
2023/12/19 06:10:46;;;;;;;36.67;17.52;;;;;;;7.11;98.93;102077.72;5062867;28;20024;-70
2023/12/19 06:13:12;;;;;;;32.00;17.33;;;;;;;7.04;98.99;102055.88;5063380;28;20050;-70
2023/12/19 06:15:37;;;;;;;34.10;19.20;;;;;;;7.07;99.12;102054.97;5064130;28;20024;-70
2023/12/19 06:18:02;;;;;;;33.70;16.95;;;;;;;7.09;98.82;102058.47;5065402;28;20032;-70
2023/12/19 06:20:28;;;;;;;32.58;17.38;;;;;;;7.11;98.84;102064.59;5059691;28;20017;-70
2023/12/19 06:22:53;;;;;;;34.05;19.17;;;;;;;7.08;98.63;102064.59;5061999;28;20051;-70
2023/12/19 06:25:18;;;;;;;27.17;15.07;;;;;;;7.13;98.73;102062.81;5067699;28;20029;-70
2023/12/19 06:27:44;;;;;;;35.40;16.77;;;;;;;7.11;98.72;102049.66;5063991;28;20020;-70
2023/12/19 06:30:10;;;;;;;36.92;19.10;;;;;;;7.07;98.99;102050.56;5067857;28;20024;-71
2023/12/19 06:32:36;;;;;;;34.08;18.13;;;;;;;7.13;98.65;102054.91;5064964;28;20426;-70
2023/12/19 06:35:07;;;;;;;29.77;15.63;;;;;;;7.18;98.50;102052.25;5060718;28;21407;-70
2023/12/19 06:37:33;;;;;;;32.33;15.90;;;;;;;7.11;98.90;102049.66;5064166;28;20029;-70
2023/12/19 06:39:59;;;;;;;32.20;15.98;;;;;;;7.15;98.60;102053.16;5061790;28;20403;-70
2023/12/19 06:42:25;;;;;;;29.98;15.80;;;;;;;7.18;98.85;102058.41;5063427;28;20395;-70
2023/12/19 06:44:50;;;;;;;27.33;15.43;;;;;;;7.21;98.54;102060.13;5067304;28;20056;-70
2023/12/19 06:47:16;;;;;;;33.70;17.17;;;;;;;7.27;98.44;102033.78;5066945;28;21294;-70
2023/12/19 06:49:43;;;;;;;32.03;15.00;;;;;;;7.24;98.52;102042.59;5057479;28;20388;-70
2023/12/19 06:52:09;;;;;;;31.70;15.98;;;;;;;7.30;98.14;102039.91;5063167;28;20028;-70
2023/12/19 06:54:38;;;;;;;31.25;15.68;;;;;;;7.29;98.38;102047.81;5069562;28;20559;-71
2023/12/19 06:57:04;;;;;;;26.50;14.93;;;;;;;7.30;97.98;102039.03;5062495;28;20045;-70
2023/12/19 06:59:32;;;;;;;33.10;15.82;;;;;;;7.33;98.22;102052.16;5063458;28;20027;-70
2023/12/19 07:01:57;;;;;;;31.80;16.42;;;;;;;7.32;97.71;102046.03;5067260;28;20032;-70
2023/12/19 07:04:23;;;;;;;33.03;14.63;;;;;;;7.34;98.07;102051.28;5067233;28;20521;-70
2023/12/19 07:06:48;;;;;;;30.38;17.85;;;;;;;7.30;97.77;102032.00;5059718;28;20016;-70
2023/12/19 07:09:14;;;;;;;26.77;15.30;;;;;;;7.44;97.82;102031.03;5059093;28;20052;-70
2023/12/19 07:11:40;;;;;;;24.10;14.68;;;;;;;7.73;95.76;102028.13;5064173;28;20021;-70
2023/12/19 07:14:05;;;;;;;24.95;14.80;;;;;;;7.68;95.55;102030.81;5065170;28;20430;-70
2023/12/19 07:16:31;;;;;;;27.38;17.73;;;;;;;7.71;95.02;102030.78;5063991;28;20028;-71
2023/12/19 07:18:56;;;;;;;21.65;14.57;;;;;;;7.73;94.81;102029.00;5063210;28;20021;-71
2023/12/19 07:21:23;;;;;;;25.23;14.45;;;;;;;7.87;94.52;102020.97;5063257;28;20039;-70
2023/12/19 07:23:49;;;;;;;27.05;14.25;;;;;;;7.82;94.44;102015.75;5066096;28;20119;-70
2023/12/19 07:26:27;;;;;;;26.63;14.02;;;;;;;7.79;94.63;102014.94;5065552;28;20063;-70
2023/12/19 07:28:57;;;;;;;28.52;16.63;;;;;;;7.44;96.63;102010.84;5064560;28;20434;-71
2023/12/19 07:31:24;;;;;;;23.48;13.20;;;;;;;7.48;96.94;102002.06;5061149;28;20067;-71
2023/12/19 07:33:53;;;;;;;28.30;14.65;;;;;;;7.54;96.55;102003.75;5058736;28;20032;-71
2023/12/19 07:36:19;;;;;;;26.35;13.77;;;;;;;7.50;96.80;102023.94;5055701;28;20389;-70
2023/12/19 07:38:44;;;;;;;24.77;12.82;;;;;;;7.53;96.93;102018.66;5059246;28;20111;-70
2023/12/19 07:41:09;;;;;;;22.20;14.30;;;;;;;7.76;95.84;102018.47;5058237;28;20020;-70
2023/12/19 07:43:35;;;;;;;23.48;14.70;;;;;;;7.64;95.84;102026.47;5053891;28;20031;-70
2023/12/19 07:46:04;;;;;;;20.65;13.05;;;;;;;7.56;96.15;102026.53;5060439;28;20027;-70
2023/12/19 07:48:30;;;;;;;22.75;13.68;;;;;;;7.53;96.15;102018.66;5058285;28;20111;-70
2023/12/19 07:50:55;;;;;;;22.92;14.15;;;;;;;7.48;96.56;102030.13;5056727;28;20415;-69
2023/12/19 07:53:20;;;;;;;23.75;12.35;;;;;;;7.57;95.91;102020.38;5062330;28;20032;-70
2023/12/19 07:55:46;;;;;;;19.67;11.95;;;;;;;7.60;96.13;102011.56;5054037;28;20021;-70
2023/12/19 07:58:12;;;;;;;25.58;13.52;;;;;;;7.64;96.14;102010.66;5056271;28;20064;-70
2023/12/19 08:00:37;;;;;;;23.27;14.02;;;;;;;7.61;95.85;102006.31;5061448;28;20078;-70
2023/12/19 08:03:03;;;;;;;20.40;12.88;;;;;;;7.56;96.08;102002.88;5060725;28;20029;-70
2023/12/19 08:05:28;;;;;;;25.65;12.50;;;;;;;7.63;95.67;102009.78;5062645;28;20391;-70
2023/12/19 08:07:54;;;;;;;20.75;11.55;;;;;;;7.62;95.30;101999.28;5061716;28;20013;-70
2023/12/19 08:10:20;;;;;;;21.67;11.30;;;;;;;7.68;95.47;101999.22;5066596;28;20391;-70
2023/12/19 08:12:45;;;;;;;15.10;9.88;;;;;;;7.70;95.83;101991.34;5060569;28;20498;-70
2023/12/19 08:15:10;;;;;;;25.70;12.88;;;;;;;7.60;97.42;101987.88;5068668;28;20119;-69
2023/12/19 08:17:38;;;;;;;21.25;12.00;;;;;;;7.53;98.47;101986.22;5064878;28;20040;-70
2023/12/19 08:20:05;;;;;;;23.65;11.70;;;;;;;7.49;98.98;101988.00;5055445;28;20033;-70
2023/12/19 08:22:31;;;;;;;23.52;13.55;;;;;;;7.31;99.71;101986.41;5057301;28;20099;-70
2023/12/19 08:24:56;;;;;;;23.02;13.57;;;;;;;7.35;100.00;101982.84;5061035;28;20711;-70
2023/12/19 08:27:26;;;;;;;27.38;15.00;;;;;;;7.32;100.00;101990.78;5065959;28;20383;-69
2023/12/19 08:29:51;;;;;;;27.55;15.15;;;;;;;7.26;100.00;101988.19;5059051;28;20029;-70
2023/12/19 08:32:16;;;;;;;26.17;13.40;;;;;;;7.30;100.00;101986.41;5065406;28;20052;-70
2023/12/19 08:34:42;;;;;;;42.50;15.20;;;;;;;7.24;100.00;101983.84;5056933;28;20396;-69
2023/12/19 08:37:08;;;;;;;24.33;13.35;;;;;;;7.24;100.00;101989.09;5057704;28;21531;-70
2023/12/19 08:39:33;;;;;;;27.65;14.23;;;;;;;7.23;100.00;101982.06;5061735;28;20024;-70
2023/12/19 08:41:59;;;;;;;26.10;14.55;;;;;;;7.63;100.00;101999.28;5069578;28;20127;-70
2023/12/19 08:44:26;;;;;;;23.88;13.73;;;;;;;7.67;100.00;101979.94;5056540;28;20036;-69
2023/12/19 08:46:52;;;;;;;25.55;13.25;;;;;;;7.31;100.00;101985.53;5062516;28;20480;-70
2023/12/19 08:49:18;;;;;;;29.52;14.10;;;;;;;7.20;100.00;101984.75;5063440;28;20028;-70
2023/12/19 08:51:49;;;;;;;24.17;13.15;;;;;;;7.19;100.00;101977.75;5058686;28;20056;-70
2023/12/19 08:54:15;;;;;;;24.02;11.82;;;;;;;7.21;100.00;101968.94;5060308;28;20407;-70
2023/12/19 08:56:41;;;;;;;25.52;13.93;;;;;;;7.16;100.00;101976.88;5065567;28;20029;-70
2023/12/19 08:59:06;;;;;;;27.20;16.42;;;;;;;7.09;100.00;101963.81;5063657;28;20033;-70
2023/12/19 09:01:32;;;;;;;31.05;15.77;;;;;;;7.10;100.00;101970.81;5061343;28;20571;-70
2023/12/19 09:03:57;;;;;;;26.83;14.38;;;;;;;7.13;100.00;101966.41;5057987;28;20488;-70
2023/12/19 09:06:22;;;;;;;27.55;13.77;;;;;;;7.10;100.00;101966.41;5061092;28;20055;-70
2023/12/19 09:08:48;;;;;;;32.30;15.65;;;;;;;7.13;100.00;101966.41;5059865;28;20060;-70
2023/12/19 09:11:13;;;;;;;30.70;14.45;;;;;;;7.13;100.00;101965.50;5060635;28;20115;-70
2023/12/19 09:13:40;;;;;;;23.67;13.77;;;;;;;7.11;100.00;101968.16;5058268;28;20032;-70
2023/12/19 09:16:06;;;;;;;25.20;13.90;;;;;;;7.13;100.00;101963.78;5060629;28;20029;-70
2023/12/19 09:18:32;;;;;;;21.20;11.65;;;;;;;7.12;100.00;101955.88;5062160;28;20029;-70
2023/12/19 09:20:57;;;;;;;27.60;13.85;;;;;;;7.13;100.00;101955.88;5063568;28;20029;-71
2023/12/19 09:23:22;;;;;;;27.25;14.20;;;;;;;7.13;100.00;101948.00;5060422;28;20155;-70
2023/12/19 09:25:48;;;;;;;25.08;13.57;;;;;;;7.15;100.00;101959.34;5060474;28;20024;-71
2023/12/19 09:28:13;;;;;;;26.45;14.73;;;;;;;7.08;100.00;101941.88;5059433;28;20119;-70
2023/12/19 09:30:39;;;;;;;26.27;13.60;;;;;;;7.13;100.00;101944.47;5063344;28;20055;-71
2023/12/19 09:33:04;;;;;;;15.60;10.05;;;;;;;7.11;100.00;101933.97;5056587;28;20112;-71
2023/12/19 09:35:30;;;;;;;21.27;11.38;;;;;;;7.12;100.00;101935.69;5067373;28;20024;-70
2023/12/19 09:38:01;;;;;;;24.10;11.35;;;;;;;7.15;100.00;101937.44;5059661;28;20054;-70
2023/12/19 09:40:29;;;;;;;18.92;12.27;;;;;;;7.10;100.00;101931.34;5060183;28;20488;-70
2023/12/19 09:42:59;;;;;;;18.25;10.70;;;;;;;7.16;100.00;101945.31;5055817;28;20373;-71
2023/12/19 09:45:24;;;;;;;14.98;9.75;;;;;;;7.23;100.00;101933.00;5059334;28;20032;-70
2023/12/19 09:47:59;;;;;;;18.60;11.18;;;;;;;7.20;100.00;101935.66;5057481;28;20024;-70
2023/12/19 09:50:26;;;;;;;19.30;12.70;;;;;;;7.15;100.00;101933.06;5061792;28;20043;-70
2023/12/19 09:52:59;;;;;;;21.65;13.27;;;;;;;7.17;100.00;101922.50;5059657;28;20025;-71
2023/12/19 09:55:29;;;;;;;20.27;11.23;;;;;;;7.25;100.00;101925.09;5062129;28;20033;-70
2023/12/19 09:57:55;;;;;;;20.10;9.85;;;;;;;7.22;100.00;101923.34;5061303;28;20061;-70
2023/12/19 10:00:22;;;;;;;13.95;8.85;;;;;;;7.22;100.00;101909.31;5056458;28;20207;-70
2023/12/19 10:02:48;;;;;;;17.77;10.55;;;;;;;7.21;100.00;101900.56;5058714;28;20028;-70
2023/12/19 10:05:13;;;;;;;16.08;10.25;;;;;;;7.26;100.00;101904.03;5056803;28;20640;-71
2023/12/19 10:07:40;;;;;;;16.63;9.25;;;;;;;7.26;100.00;101900.53;5054002;28;20056;-70
2023/12/19 10:10:07;;;;;;;13.70;8.43;;;;;;;7.26;100.00;101892.63;5066887;28;20036;-70
2023/12/19 10:12:32;;;;;;;15.07;8.23;;;;;;;7.32;100.00;101908.34;5056011;28;20036;-70
2023/12/19 10:15:15;;;;;;;11.85;8.07;;;;;;;7.35;100.00;101893.41;5061659;28;20502;-71
2023/12/19 10:18:00;;;;;;;14.07;9.05;;;;;;;7.29;100.00;101888.22;5054714;28;20032;-71
2023/12/19 10:20:25;;;;;;;15.63;8.65;;;;;;;7.29;100.00;101885.59;5059379;28;20377;-71
2023/12/19 10:23:01;;;;;;;11.93;7.72;;;;;;;7.31;100.00;101888.19;5061633;28;20058;-71
2023/12/19 10:25:26;;;;;;;16.60;9.23;;;;;;;7.38;100.00;101882.88;5056480;28;20044;-70
2023/12/19 10:28:03;;;;;;;15.50;8.82;;;;;;;7.39;100.00;101881.09;5055345;28;20056;-70
2023/12/19 10:30:29;;;;;;;13.23;9.68;;;;;;;7.45;100.00;101891.56;5061490;28;20031;-70
2023/12/19 10:32:57;;;;;;;16.05;8.93;;;;;;;7.37;100.00;101875.00;5053849;28;20028;-71
2023/12/19 10:35:22;;;;;;;12.90;9.02;;;;;;;7.38;100.00;101868.84;5065212;28;20572;-70
2023/12/19 10:37:48;;;;;;;12.60;7.45;;;;;;;7.44;100.00;101858.25;5055537;28;20108;-71
2023/12/19 10:40:19;;;;;;;15.32;7.78;;;;;;;7.47;100.00;101855.59;5065118;28;20082;-70
2023/12/19 10:42:53;;;;;;;10.98;8.38;;;;;;;7.49;100.00;101852.94;5058209;28;20476;-70
2023/12/19 10:45:20;;;;;;;12.95;7.95;;;;;;;7.51;100.00;101838.91;5060591;28;20089;-69
2023/12/19 10:47:46;;;;;;;14.73;8.13;;;;;;;7.50;100.00;101844.16;5056640;28;20020;-70
2023/12/19 10:50:11;;;;;;;13.00;7.90;;;;;;;7.45;100.00;101835.44;5062035;28;20028;-70
2023/12/19 10:52:42;;;;;;;14.02;8.77;;;;;;;7.47;100.00;101845.06;5061612;28;20434;-71
2023/12/19 10:55:15;;;;;;;13.10;8.23;;;;;;;7.38;100.00;101834.66;5055994;28;20027;-70
2023/12/19 10:57:47;;;;;;;14.38;8.90;;;;;;;7.47;100.00;101813.50;5056084;28;20048;-70
2023/12/19 11:00:17;;;;;;;14.73;8.98;;;;;;;7.48;100.00;101809.97;5057610;28;20459;-70
2023/12/19 11:03:22;;;;;;;14.93;9.52;;;;;;;7.54;100.00;101795.88;5057346;28;20086;-70
2023/12/19 11:05:50;;;;;;;15.55;9.00;;;;;;;7.54;100.00;101785.34;5051330;28;20090;-70
2023/12/19 11:08:18;;;;;;;17.20;9.38;;;;;;;7.57;100.00;101783.56;5051013;28;20056;-70
2023/12/19 11:11:10;;;;;;;16.20;7.88;;;;;;;7.60;100.00;101780.88;5058445;28;20561;-70